Time;durP1;ratioP1;P1;durP2;ratioP2;P2;SDS_P1;SDS_P2;PMS_P1;PMS_P2;Temp;Humidity;BMP_temperature;BMP_pressure;BME280_temperature;BME280_humidity;BME280_pressure;Samples;Min_cycle;Max_cycle;Signal;HPM_P1;HPM_P2
2023/12/31 00:00:29;;;;;;;271.38;136.13;;;;;;;1.98;91.38;99845.91;4888897;29;20048;-89
2023/12/31 00:03:15;;;;;;;265.50;130.80;;;;;;;1.92;91.65;99846.53;4912268;29;20053;-88
2023/12/31 00:06:01;;;;;;;225.05;114.90;;;;;;;1.87;91.36;99832.25;4915471;29;20045;-81
2023/12/31 00:08:50;;;;;;;275.67;124.47;;;;;;;1.83;90.98;99840.44;4922417;29;20459;-80
2023/12/31 00:11:39;;;;;;;280.95;126.57;;;;;;;1.76;91.53;99839.44;4922677;29;20045;-86
2023/12/31 00:14:25;;;;;;;364.67;150.73;;;;;;;1.72;91.57;99842.50;4911256;29;20051;-89
2023/12/31 00:17:10;;;;;;;347.40;164.02;;;;;;;1.78;91.54;99840.06;4905641;29;20041;-81
2023/12/31 00:19:56;;;;;;;367.00;175.73;;;;;;;1.76;92.18;99839.44;4889497;29;20052;-81
2023/12/31 00:22:41;;;;;;;400.67;210.77;;;;;;;1.76;91.84;99833.38;4904004;29;20044;-81
2023/12/31 00:25:27;;;;;;;457.30;254.20;;;;;;;1.69;92.31;99835.78;4889854;29;20411;-89
2023/12/31 00:28:12;;;;;;;459.38;258.25;;;;;;;1.69;91.59;99837.56;4891192;29;20045;-88
2023/12/31 00:30:58;;;;;;;414.00;224.45;;;;;;;1.64;92.39;99837.25;4890885;29;20041;-81
2023/12/31 00:33:43;;;;;;;389.52;192.57;;;;;;;1.53;92.50;99833.09;4905797;29;20048;-88
2023/12/31 00:36:31;;;;;;;413.85;218.43;;;;;;;1.45;92.56;99833.88;4895037;29;20052;-81
2023/12/31 00:39:15;;;;;;;347.73;168.43;;;;;;;1.38;92.17;99831.06;4896928;29;20440;-81
2023/12/31 00:42:00;;;;;;;317.90;149.40;;;;;;;1.25;91.76;99830.63;4904311;29;20080;-88
2023/12/31 00:44:46;;;;;;;358.77;162.98;;;;;;;1.21;92.02;99831.94;4881844;29;20044;-80
2023/12/31 00:47:32;;;;;;;355.08;161.27;;;;;;;1.12;92.06;99827.63;4895129;29;20044;-81
2023/12/31 00:50:19;;;;;;;313.77;140.48;;;;;;;1.11;92.31;99826.81;4894777;29;20040;-80
2023/12/31 00:53:04;;;;;;;406.45;206.90;;;;;;;1.16;92.91;99821.13;4895040;29;20403;-80
2023/12/31 00:55:49;;;;;;;326.45;148.48;;;;;;;1.07;93.07;99816.81;4902268;29;20040;-80
2023/12/31 00:58:35;;;;;;;312.65;141.40;;;;;;;1.05;92.56;99818.75;4903217;29;20056;-86
2023/12/31 01:01:21;;;;;;;270.98;118.38;;;;;;;1.00;93.01;99816.56;4903272;29;20044;-87
2023/12/31 01:04:07;;;;;;;260.40;115.82;;;;;;;0.98;92.81;99808.06;4881615;29;20407;-86
2023/12/31 01:06:52;;;;;;;316.27;134.80;;;;;;;0.91;92.66;99818.34;4895048;29;20045;-86
2023/12/31 01:09:38;;;;;;;313.85;136.02;;;;;;;0.88;92.83;99809.97;4894882;29;20044;-80
2023/12/31 01:12:24;;;;;;;244.27;110.03;;;;;;;0.97;92.89;99810.81;4899100;29;20053;-79
2023/12/31 01:15:10;;;;;;;247.55;118.25;;;;;;;0.96;92.95;99806.56;4891547;29;20049;-79
2023/12/31 01:17:56;;;;;;;223.30;106.70;;;;;;;0.93;92.96;99800.66;4902960;29;20056;-87
2023/12/31 01:20:42;;;;;;;207.82;94.07;;;;;;;0.88;93.18;99796.88;4903518;29;20049;-87
2023/12/31 01:23:27;;;;;;;195.15;91.45;;;;;;;0.84;93.18;99806.81;4900657;29;20056;-80
2023/12/31 01:26:13;;;;;;;175.23;81.57;;;;;;;0.80;93.17;99797.63;4891361;29;20048;-79
2023/12/31 01:28:59;;;;;;;168.23;84.03;;;;;;;0.72;93.12;99794.94;4891437;29;20048;-80
2023/12/31 01:31:46;;;;;;;161.25;78.88;;;;;;;0.67;93.28;99805.06;4899302;29;20411;-80
2023/12/31 01:34:31;;;;;;;187.20;87.93;;;;;;;0.63;93.15;99801.94;4899766;29;20055;-85
2023/12/31 01:37:17;;;;;;;213.43;109.80;;;;;;;0.58;93.57;99805.97;4905508;29;20055;-81
2023/12/31 01:40:03;;;;;;;196.05;94.38;;;;;;;0.53;93.00;99809.00;4899616;29;20484;-85
2023/12/31 01:42:48;;;;;;;186.68;88.63;;;;;;;0.54;93.21;99808.06;4892485;29;20055;-86
2023/12/31 01:45:33;;;;;;;158.85;78.05;;;;;;;0.55;93.50;99808.88;4878924;29;20063;-86
2023/12/31 01:48:19;;;;;;;171.02;81.07;;;;;;;0.50;93.49;99811.13;4892010;29;20063;-86
2023/12/31 01:51:06;;;;;;;151.05;76.32;;;;;;;0.40;93.54;99811.19;4899562;29;20056;-80
2023/12/31 01:53:52;;;;;;;140.50;69.40;;;;;;;0.35;93.39;99808.22;4899029;29;20063;-81
2023/12/31 01:56:38;;;;;;;131.02;65.10;;;;;;;0.36;93.66;99808.06;4884913;29;20060;-81
2023/12/31 01:59:23;;;;;;;120.88;60.03;;;;;;;0.32;93.24;99801.50;4878511;29;20060;-86
2023/12/31 02:02:09;;;;;;;117.75;56.40;;;;;;;0.29;93.70;99801.78;4905353;29;20071;-87
2023/12/31 02:04:55;;;;;;;122.45;60.75;;;;;;;0.25;93.53;99803.03;4878326;29;20075;-87
2023/12/31 02:07:40;;;;;;;159.20;77.93;;;;;;;0.26;94.04;99791.63;4885341;29;20481;-87
2023/12/31 02:10:26;;;;;;;174.52;81.63;;;;;;;0.31;94.06;99794.59;4884530;29;20068;-82
2023/12/31 02:13:12;;;;;;;203.95;98.68;;;;;;;0.30;94.03;99795.59;4873151;29;20138;-80
2023/12/31 02:15:58;;;;;;;174.98;86.95;;;;;;;0.25;93.75;99794.38;4898612;29;20063;-87
2023/12/31 02:18:44;;;;;;;191.82;92.53;;;;;;;0.17;93.77;99793.34;4898511;29;20055;-86
2023/12/31 02:21:29;;;;;;;183.68;88.93;;;;;;;0.13;93.96;99789.41;4890717;29;20056;-86
2023/12/31 02:24:18;;;;;;;198.57;96.25;;;;;;;0.10;93.93;99794.09;4891429;29;20047;-87
2023/12/31 02:27:04;;;;;;;194.13;100.18;;;;;;;0.04;93.46;99790.28;4902375;29;20047;-87
2023/12/31 02:29:49;;;;;;;182.27;96.25;;;;;;;-0.02;93.85;99778.63;4902787;29;20049;-86
2023/12/31 02:32:34;;;;;;;185.63;95.85;;;;;;;-0.07;93.40;99782.63;4894718;29;20049;-80
2023/12/31 02:35:20;;;;;;;182.85;95.60;;;;;;;-0.12;94.01;99775.25;4902289;29;20053;-87
2023/12/31 02:38:06;;;;;;;193.13;97.70;;;;;;;-0.17;93.60;99784.50;4894360;29;20060;-87
2023/12/31 02:40:51;;;;;;;169.85;88.45;;;;;;;-0.21;94.11;99773.53;4894233;29;20411;-80
2023/12/31 02:43:40;;;;;;;168.90;81.93;;;;;;;-0.21;94.24;99780.53;4902147;29;20048;-80
2023/12/31 02:46:25;;;;;;;158.07;80.38;;;;;;;-0.22;94.49;99779.69;4902092;29;20048;-80
2023/12/31 02:49:11;;;;;;;162.80;78.82;;;;;;;-0.20;94.02;99779.56;4902122;29;20045;-86
2023/12/31 02:51:57;;;;;;;163.88;79.57;;;;;;;-0.20;94.13;99779.56;4902028;29;20060;-86
2023/12/31 02:54:45;;;;;;;152.98;76.88;;;;;;;-0.27;93.42;99774.13;4894058;29;20387;-86
2023/12/31 02:57:31;;;;;;;138.02;70.55;;;;;;;-0.28;93.94;99768.06;4902393;29;20041;-80
2023/12/31 03:00:16;;;;;;;173.02;91.30;;;;;;;-0.32;93.76;99771.09;4901847;29;20044;-85
2023/12/31 03:03:03;;;;;;;143.73;70.20;;;;;;;-0.36;93.75;99772.38;4901892;29;20052;-86
2023/12/31 03:05:49;;;;;;;120.70;58.50;;;;;;;-0.43;94.28;99779.97;4902397;29;20052;-79
2023/12/31 03:08:34;;;;;;;127.55;56.30;;;;;;;-0.49;93.75;99773.53;4901797;29;20404;-80
2023/12/31 03:11:20;;;;;;;120.38;56.45;;;;;;;-0.52;93.73;99781.66;4901838;29;20049;-79
2023/12/31 03:14:06;;;;;;;139.45;60.42;;;;;;;-0.53;93.79;99782.63;4901661;29;20511;-79
2023/12/31 03:16:51;;;;;;;155.23;72.68;;;;;;;-0.56;93.55;99784.72;4902109;29;20052;-80
2023/12/31 03:19:37;;;;;;;142.57;73.05;;;;;;;-0.60;94.25;99783.34;4902005;29;20152;-80
2023/12/31 03:22:23;;;;;;;126.18;60.00;;;;;;;-0.59;94.31;99777.97;4893619;29;20049;-79
2023/12/31 03:25:10;;;;;;;125.20;58.20;;;;;;;-0.55;94.05;99779.34;4901673;29;20044;-79
2023/12/31 03:27:55;;;;;;;97.18;49.70;;;;;;;-0.54;94.23;99775.75;4893375;29;20041;-86
2023/12/31 03:30:41;;;;;;;122.47;58.28;;;;;;;-0.49;93.77;99775.31;4901294;29;20051;-79
2023/12/31 03:33:26;;;;;;;140.93;66.10;;;;;;;-0.49;94.37;99781.38;4901624;29;20408;-85
2023/12/31 03:36:12;;;;;;;131.30;66.82;;;;;;;-0.52;93.96;99786.88;4893279;29;20052;-80
2023/12/31 03:38:58;;;;;;;118.72;59.67;;;;;;;-0.54;94.40;99783.56;4887474;29;20044;-86
2023/12/31 03:41:44;;;;;;;129.25;56.97;;;;;;;-0.58;94.29;99787.44;4901194;29;20057;-79
2023/12/31 03:44:30;;;;;;;114.90;56.75;;;;;;;-0.63;94.64;99778.41;4901574;29;20049;-86
2023/12/31 03:47:15;;;;;;;123.72;56.55;;;;;;;-0.67;94.35;99782.28;4901933;29;20056;-85
2023/12/31 03:50:01;;;;;;;116.85;56.38;;;;;;;-0.71;94.31;99785.16;4901523;29;20040;-87
2023/12/31 03:52:47;;;;;;;121.25;58.20;;;;;;;-0.79;94.11;99774.59;4893437;29;20491;-80
2023/12/31 03:55:33;;;;;;;112.90;51.67;;;;;;;-0.83;93.78;99775.06;4901425;29;20383;-80
2023/12/31 03:58:18;;;;;;;94.38;46.58;;;;;;;-0.86;94.41;99775.34;4901138;29;20044;-86
2023/12/31 04:01:04;;;;;;;110.28;49.15;;;;;;;-0.83;94.46;99778.47;4894963;29;20056;-82
2023/12/31 04:03:50;;;;;;;127.43;54.20;;;;;;;-0.84;94.10;99774.25;4895755;29;20407;-86
2023/12/31 04:06:35;;;;;;;131.32;58.05;;;;;;;-0.83;94.14;99780.28;4901245;29;20049;-86
2023/12/31 04:09:21;;;;;;;131.32;60.00;;;;;;;-0.86;94.21;99777.94;4892829;29;20491;-86
2023/12/31 04:12:07;;;;;;;127.05;60.15;;;;;;;-0.90;93.64;99780.03;4900398;29;20052;-86
2023/12/31 04:14:52;;;;;;;129.52;62.30;;;;;;;-0.95;94.01;99784.84;4880144;29;20479;-86
2023/12/31 04:17:38;;;;;;;111.82;56.17;;;;;;;-1.02;93.91;99776.75;4892881;29;20052;-86
2023/12/31 04:20:23;;;;;;;135.00;64.85;;;;;;;-1.05;94.02;99771.81;4900369;29;20049;-87
2023/12/31 04:23:09;;;;;;;125.57;61.20;;;;;;;-1.04;94.25;99775.25;4900525;29;20052;-87
2023/12/31 04:25:54;;;;;;;139.23;64.47;;;;;;;-1.00;94.29;99777.44;4892543;29;20483;-80
2023/12/31 04:28:41;;;;;;;133.30;62.67;;;;;;;-1.04;94.31;99783.06;4902623;29;20048;-79
2023/12/31 04:31:27;;;;;;;138.20;66.00;;;;;;;-1.09;94.72;99780.91;4901733;29;20048;-85
2023/12/31 04:34:14;;;;;;;141.07;72.88;;;;;;;-1.12;94.15;99777.75;4893558;29;20048;-79
2023/12/31 04:37:00;;;;;;;144.55;65.88;;;;;;;-1.12;94.56;99777.75;4881114;29;20048;-79
2023/12/31 04:39:46;;;;;;;137.23;66.88;;;;;;;-1.08;94.44;99774.72;4894998;29;20044;-79
2023/12/31 04:42:31;;;;;;;146.85;66.82;;;;;;;-1.14;94.34;99775.28;4904929;29;20048;-79
2023/12/31 04:45:17;;;;;;;165.60;76.40;;;;;;;-1.18;93.90;99773.91;4904757;29;20056;-80
2023/12/31 04:48:02;;;;;;;145.88;65.30;;;;;;;-1.16;94.61;99774.59;4891909;29;20053;-86
2023/12/31 04:50:49;;;;;;;121.70;51.75;;;;;;;-1.12;94.59;99773.34;4901146;29;20040;-86
2023/12/31 04:53:36;;;;;;;121.18;56.30;;;;;;;-1.14;94.35;99772.66;4892550;29;20395;-86
2023/12/31 04:56:22;;;;;;;131.27;58.50;;;;;;;-1.14;94.72;99771.84;4892587;29;20041;-79
2023/12/31 04:59:08;;;;;;;154.20;66.88;;;;;;;-1.12;94.33;99768.13;4900905;29;20053;-87
2023/12/31 05:01:55;;;;;;;134.73;62.53;;;;;;;-1.13;94.40;99760.44;4901462;29;20049;-86
2023/12/31 05:04:40;;;;;;;151.93;69.20;;;;;;;-1.12;94.38;99762.09;4900378;29;20048;-80
2023/12/31 05:07:26;;;;;;;138.32;64.93;;;;;;;-1.17;94.56;99770.34;4900015;29;20049;-79
2023/12/31 05:10:12;;;;;;;139.70;64.60;;;;;;;-1.21;94.02;99767.19;4901919;29;20052;-80
2023/12/31 05:12:58;;;;;;;126.38;59.95;;;;;;;-1.16;94.44;99771.97;4900373;29;20049;-85
2023/12/31 05:15:43;;;;;;;128.40;62.22;;;;;;;-1.20;94.37;99773.22;4902226;29;20048;-85
2023/12/31 05:18:29;;;;;;;146.90;59.50;;;;;;;-1.24;94.18;99766.66;4902491;29;20475;-79
2023/12/31 05:21:14;;;;;;;183.32;50.70;;;;;;;-1.45;94.45;99769.41;4902124;29;20048;-84
2023/12/31 05:24:01;;;;;;;311.33;59.95;;;;;;;-1.67;95.19;99763.53;4900113;29;20044;-86
2023/12/31 05:26:48;;;;;;;596.08;90.68;;;;;;;-1.79;94.63;99769.84;4901172;29;20056;-81
2023/12/31 05:29:33;;;;;;;786.50;107.93;;;;;;;-1.80;95.17;99772.59;4902076;29;20044;-87
2023/12/31 05:32:18;;;;;;;523.97;84.63;;;;;;;-1.81;95.22;99768.34;4900939;29;20040;-87
2023/12/31 05:35:05;;;;;;;415.77;75.78;;;;;;;-1.83;95.32;99768.47;4903155;29;20478;-87
2023/12/31 05:37:50;;;;;;;736.35;100.38;;;;;;;-1.77;95.53;99761.91;4886676;29;20048;-79
2023/12/31 05:40:35;;;;;;;829.80;111.47;;;;;;;-1.69;94.88;99759.44;4898912;29;20036;-81
2023/12/31 05:43:21;;;;;;;872.35;116.75;;;;;;;-1.65;95.83;99760.81;4899017;29;20044;-81
2023/12/31 05:46:07;;;;;;;842.05;128.00;;;;;;;-1.60;95.30;99762.97;4891071;29;20052;-80
2023/12/31 05:48:52;;;;;;;840.17;122.65;;;;;;;-1.54;95.70;99762.44;4899005;29;20044;-79
2023/12/31 05:51:38;;;;;;;954.08;127.95;;;;;;;-1.57;95.95;99762.72;4904506;29;20048;-86
2023/12/31 05:54:23;;;;;;;826.60;118.60;;;;;;;-1.64;95.75;99758.06;4904448;29;20052;-81
2023/12/31 05:57:09;;;;;;;682.90;107.35;;;;;;;-1.65;95.29;99771.22;4904266;29;20056;-79
2023/12/31 05:59:55;;;;;;;1008.38;108.28;;;;;;;-1.69;96.14;99759.44;4922122;29;20052;-79
2023/12/31 06:02:40;;;;;;;765.95;105.20;;;;;;;-1.74;95.68;99767.66;4923278;29;20033;-84
2023/12/31 06:05:26;;;;;;;741.90;105.18;;;;;;;-1.80;95.60;99759.56;4916189;29;20417;-87
2023/12/31 06:08:11;;;;;;;394.45;90.70;;;;;;;-1.82;96.41;99769.28;4898885;29;20044;-78
2023/12/31 06:10:57;;;;;;;784.33;105.50;;;;;;;-1.84;95.69;99761.63;4899125;29;20053;-86
2023/12/31 06:13:42;;;;;;;658.95;97.25;;;;;;;-1.82;95.75;99766.69;4898794;29;20062;-80
2023/12/31 06:16:28;;;;;;;645.38;107.57;;;;;;;-1.81;96.02;99766.56;4898530;29;20056;-80
2023/12/31 06:19:13;;;;;;;688.38;114.68;;;;;;;-1.77;96.23;99765.34;4899293;29;20045;-81
2023/12/31 06:21:59;;;;;;;662.63;107.40;;;;;;;-1.72;95.64;99777.97;4884894;29;20056;-80
2023/12/31 06:24:45;;;;;;;597.78;97.10;;;;;;;-1.79;96.35;99776.84;4898722;29;20452;-81
2023/12/31 06:27:30;;;;;;;448.63;102.68;;;;;;;-1.71;96.57;99777.00;4898874;29;20044;-86
2023/12/31 06:30:16;;;;;;;409.05;109.22;;;;;;;-1.66;96.47;99777.38;4899204;29;20487;-86
2023/12/31 06:33:01;;;;;;;500.77;114.25;;;;;;;-1.63;96.37;99774.50;4898538;29;20049;-80
2023/12/31 06:35:47;;;;;;;517.42;109.22;;;;;;;-1.63;96.61;99774.50;4899036;29;20048;-86
2023/12/31 06:38:32;;;;;;;510.35;125.10;;;;;;;-1.61;96.40;99780.41;4898361;29;20483;-80
2023/12/31 06:41:19;;;;;;;411.45;135.13;;;;;;;-1.59;96.52;99780.28;4898708;29;20045;-80
2023/12/31 06:44:05;;;;;;;589.10;143.60;;;;;;;-1.56;96.03;99783.44;4890740;29;20053;-80
2023/12/31 06:46:51;;;;;;;535.92;147.07;;;;;;;-1.44;96.00;99790.16;4898901;29;20052;-86
2023/12/31 06:49:37;;;;;;;434.50;134.93;;;;;;;-1.31;96.02;99794.25;4899014;29;20439;-85
2023/12/31 06:52:23;;;;;;;479.35;139.52;;;;;;;-1.18;96.33;99793.00;4890415;29;20036;-79
2023/12/31 06:55:10;;;;;;;517.67;183.95;;;;;;;-1.12;96.10;99794.22;4884298;29;20045;-82
2023/12/31 06:57:55;;;;;;;500.95;200.50;;;;;;;-1.06;95.93;99796.28;4897899;29;20048;-86
2023/12/31 07:00:41;;;;;;;455.02;126.07;;;;;;;-1.01;95.97;99801.06;4898089;29;20045;-86
2023/12/31 07:03:27;;;;;;;515.17;117.88;;;;;;;-0.90;96.87;99798.28;4898034;29;20500;-80
2023/12/31 07:06:12;;;;;;;428.42;120.95;;;;;;;-0.84;96.25;99792.50;4898317;29;20044;-80
2023/12/31 07:08:58;;;;;;;413.27;129.85;;;;;;;-0.78;95.93;99794.53;4898045;29;20124;-80
2023/12/31 07:11:45;;;;;;;464.88;115.00;;;;;;;-0.67;96.14;99792.72;4901842;29;20040;-80
2023/12/31 07:14:30;;;;;;;516.85;142.75;;;;;;;-0.71;95.97;99790.38;4901564;29;20052;-80
2023/12/31 07:17:16;;;;;;;372.42;127.60;;;;;;;-0.63;96.19;99799.28;4890675;29;20052;-80
2023/12/31 07:20:04;;;;;;;355.98;126.50;;;;;;;-0.61;96.08;99798.19;4903566;29;20052;-80
2023/12/31 07:22:49;;;;;;;332.75;108.70;;;;;;;-0.52;95.96;99801.72;4902894;29;20044;-87
2023/12/31 07:25:36;;;;;;;433.95;108.57;;;;;;;-0.50;95.65;99798.00;4889153;29;20037;-80
2023/12/31 07:28:21;;;;;;;388.30;95.22;;;;;;;-0.48;95.94;99795.25;4902662;29;20056;-87
2023/12/31 07:31:07;;;;;;;325.92;94.13;;;;;;;-0.41;95.71;99806.75;4902714;29;20055;-86
2023/12/31 07:33:52;;;;;;;352.30;98.22;;;;;;;-0.32;95.50;99805.88;4905001;29;20040;-87
2023/12/31 07:36:38;;;;;;;362.75;89.70;;;;;;;-0.22;95.43;99805.00;4903030;29;20044;-80
2023/12/31 07:39:26;;;;;;;304.05;95.85;;;;;;;-0.15;95.19;99808.69;4904254;29;20048;-84
2023/12/31 07:42:11;;;;;;;319.38;95.72;;;;;;;-0.05;95.34;99812.88;4874677;29;20491;-80
2023/12/31 07:44:57;;;;;;;351.30;106.80;;;;;;;-0.09;95.24;99814.16;4902273;29;20052;-82
2023/12/31 07:47:42;;;;;;;398.08;105.40;;;;;;;-0.24;95.32;99813.00;4901778;29;20049;-88
2023/12/31 07:50:28;;;;;;;320.73;88.80;;;;;;;-0.07;95.41;99812.19;4899917;29;20056;-87
2023/12/31 07:53:13;;;;;;;372.42;88.20;;;;;;;-0.01;94.69;99811.63;4887538;29;20048;-80
2023/12/31 07:55:59;;;;;;;314.73;81.38;;;;;;;0.05;95.09;99815.44;4900766;29;20053;-76
2023/12/31 07:58:45;;;;;;;373.63;91.13;;;;;;;0.15;95.08;99810.97;4907335;29;20048;-76
2023/12/31 08:01:30;;;;;;;285.60;91.15;;;;;;;0.28;94.96;99812.38;4900911;29;20071;-81
2023/12/31 08:04:16;;;;;;;368.65;98.18;;;;;;;0.36;94.63;99812.47;4900525;29;20404;-78
2023/12/31 08:07:03;;;;;;;336.67;85.28;;;;;;;0.41;94.36;99811.06;4901140;29;20067;-83
2023/12/31 08:09:50;;;;;;;300.60;85.05;;;;;;;0.37;94.06;99814.94;4902232;29;20047;-80
2023/12/31 08:12:36;;;;;;;298.38;82.72;;;;;;;0.54;93.71;99809.88;4904789;29;20067;-80
2023/12/31 08:15:21;;;;;;;278.90;84.50;;;;;;;0.50;94.18;99813.72;4901123;29;20538;-79
2023/12/31 08:18:21;;;;;;;338.67;93.20;;;;;;;0.65;93.36;99807.00;4893294;29;20060;-85
2023/12/31 08:21:11;;;;;;;271.95;73.35;;;;;;;0.75;93.12;99806.91;4882382;29;20051;-83
2023/12/31 08:24:02;;;;;;;374.90;84.43;;;;;;;0.63;92.43;99816.81;4900301;29;20063;-83
2023/12/31 08:26:55;;;;;;;342.63;83.00;;;;;;;0.78;92.75;99803.97;4902098;29;20431;-84
2023/12/31 08:29:49;;;;;;;298.75;86.63;;;;;;;0.80;91.95;99804.66;4902370;29;20052;-83
2023/12/31 08:32:34;;;;;;;300.05;87.95;;;;;;;0.55;91.95;99821.97;4887092;29;20051;-84
2023/12/31 08:35:22;;;;;;;315.83;82.38;;;;;;;0.49;91.58;99812.09;4887743;29;20047;-83
2023/12/31 08:38:10;;;;;;;217.90;77.00;;;;;;;0.68;91.69;99807.50;4901315;29;20071;-79
2023/12/31 08:41:00;;;;;;;241.30;88.18;;;;;;;0.84;92.20;99806.81;4902080;29;20055;-79
2023/12/31 08:43:47;;;;;;;234.55;82.68;;;;;;;1.04;90.96;99806.63;4887119;29;20506;-79
2023/12/31 08:46:32;;;;;;;285.75;82.47;;;;;;;1.26;91.22;99806.13;4901322;29;20503;-78
2023/12/31 08:49:18;;;;;;;234.80;94.82;;;;;;;1.47;90.60;99808.34;4901271;29;20060;-82
2023/12/31 08:52:08;;;;;;;287.85;93.75;;;;;;;1.44;90.68;99802.59;4901701;29;20052;-82
2023/12/31 08:54:53;;;;;;;287.35;97.57;;;;;;;1.48;89.63;99803.94;4900841;29;20051;-77
2023/12/31 08:57:44;;;;;;;262.27;104.70;;;;;;;1.69;89.81;99812.19;4906519;29;20060;-84
2023/12/31 09:00:32;;;;;;;365.23;137.50;;;;;;;1.78;89.54;99806.00;4901981;29;20041;-78
2023/12/31 09:03:24;;;;;;;327.33;133.65;;;;;;;1.81;90.06;99805.69;4900204;29;20060;-77
2023/12/31 09:06:10;;;;;;;387.00;154.57;;;;;;;1.96;89.57;99805.09;4900151;29;20057;-78
2023/12/31 09:08:58;;;;;;;366.33;146.48;;;;;;;1.89;88.89;99807.53;4885713;29;20048;-77
2023/12/31 09:11:43;;;;;;;360.65;132.02;;;;;;;2.12;89.41;99801.69;4899241;29;20041;-83
2023/12/31 09:14:29;;;;;;;283.95;117.22;;;;;;;2.24;88.68;99798.59;4900059;29;20048;-83
2023/12/31 09:17:13;;;;;;;358.88;152.52;;;;;;;2.13;89.76;99787.59;4899745;29;20056;-81
2023/12/31 09:19:59;;;;;;;401.77;180.23;;;;;;;2.11;89.64;99785.13;4899023;29;20053;-80
2023/12/31 09:22:47;;;;;;;325.33;146.18;;;;;;;2.35;89.86;99775.66;4898953;29;20037;-84
2023/12/31 09:25:32;;;;;;;302.17;130.35;;;;;;;2.53;88.50;99771.06;4899267;29;20044;-78
2023/12/31 09:28:18;;;;;;;312.08;137.43;;;;;;;2.60;88.18;99769.44;4898902;29;20418;-78
2023/12/31 09:31:04;;;;;;;342.27;152.80;;;;;;;2.72;88.87;99769.91;4899046;29;20040;-78
2023/12/31 09:33:49;;;;;;;282.92;129.88;;;;;;;2.97;88.04;99766.25;4898864;29;20044;-83
2023/12/31 09:36:35;;;;;;;257.55;124.20;;;;;;;2.98;87.40;99761.84;4899451;29;20483;-83
2023/12/31 09:39:21;;;;;;;249.90;125.30;;;;;;;3.14;86.63;99767.06;4899019;29;20048;-83
2023/12/31 09:42:14;;;;;;;260.40;126.68;;;;;;;3.29;85.97;99758.47;4899102;29;20407;-78
2023/12/31 09:45:03;;;;;;;264.27;128.82;;;;;;;3.36;85.89;99754.19;4899050;29;20040;-79
2023/12/31 09:47:49;;;;;;;268.90;139.75;;;;;;;3.55;85.33;99747.69;4899943;29;20044;-84
2023/12/31 09:50:34;;;;;;;242.93;129.95;;;;;;;3.67;84.94;99736.63;4899322;29;20423;-81
2023/12/31 09:53:20;;;;;;;264.77;140.45;;;;;;;3.88;85.18;99743.06;4899224;29;20048;-77
2023/12/31 09:56:06;;;;;;;236.45;122.95;;;;;;;4.08;84.40;99728.50;4899984;29;20053;-81
2023/12/31 09:58:52;;;;;;;173.52;95.70;;;;;;;4.18;84.12;99726.44;4885125;29;20487;-81
2023/12/31 10:01:38;;;;;;;182.48;96.53;;;;;;;4.33;84.39;99717.78;4898715;29;20518;-77
2023/12/31 10:04:24;;;;;;;176.48;94.05;;;;;;;4.59;83.85;99717.41;4885224;29;20059;-78
2023/12/31 10:07:12;;;;;;;150.50;76.88;;;;;;;4.67;83.67;99709.44;4898691;29;20063;-78
2023/12/31 10:10:00;;;;;;;151.75;83.05;;;;;;;4.88;82.67;99706.06;4898511;29;20063;-79
2023/12/31 10:12:45;;;;;;;158.85;82.03;;;;;;;5.07;81.81;99708.16;4884723;29;20075;-82
2023/12/31 10:15:32;;;;;;;143.02;79.43;;;;;;;4.98;82.20;99695.25;4898821;29;20051;-82
2023/12/31 10:18:19;;;;;;;168.15;85.93;;;;;;;4.89;81.78;99691.94;4898609;29;20399;-78
2023/12/31 10:21:08;;;;;;;134.73;75.25;;;;;;;5.12;81.58;99691.81;4898538;29;20076;-79
2023/12/31 10:23:52;;;;;;;106.57;55.25;;;;;;;5.22;80.92;99678.38;4897000;29;20052;-84
2023/12/31 10:26:38;;;;;;;99.85;53.60;;;;;;;5.50;81.70;99679.31;4903003;29;20075;-83
2023/12/31 10:29:24;;;;;;;96.60;51.22;;;;;;;5.60;80.20;99675.56;4901936;29;20145;-78
2023/12/31 10:32:10;;;;;;;91.43;48.65;;;;;;;5.89;80.59;99664.09;4884576;29;20055;-78
2023/12/31 10:35:03;;;;;;;75.28;43.67;;;;;;;5.94;78.73;99644.09;4903586;29;20068;-84
2023/12/31 10:38:02;;;;;;;76.97;42.15;;;;;;;5.89;78.67;99657.00;4887898;29;20047;-79
2023/12/31 10:40:48;;;;;;;73.00;39.83;;;;;;;6.13;77.89;99644.44;4899118;29;20055;-77
2023/12/31 10:43:33;;;;;;;74.28;41.90;;;;;;;6.26;77.76;99634.00;4899245;29;20063;-81
2023/12/31 10:46:19;;;;;;;73.63;42.30;;;;;;;6.42;77.94;99628.41;4895405;29;20059;-79
2023/12/31 10:49:05;;;;;;;82.60;43.35;;;;;;;6.66;77.66;99629.00;4906133;29;20051;-85
2023/12/31 10:51:53;;;;;;;87.05;44.42;;;;;;;6.87;77.03;99618.34;4902252;29;20051;-79
2023/12/31 10:54:47;;;;;;;76.50;41.83;;;;;;;6.98;75.75;99613.50;4902104;29;20122;-76
2023/12/31 10:57:33;;;;;;;74.20;41.95;;;;;;;7.05;75.67;99609.91;4887902;29;20068;-84
2023/12/31 11:00:19;;;;;;;85.75;42.38;;;;;;;6.94;75.11;99603.31;4900916;29;20055;-84
2023/12/31 11:03:05;;;;;;;78.93;44.45;;;;;;;7.10;75.09;99598.72;4902204;29;20395;-81
2023/12/31 11:05:55;;;;;;;90.20;44.15;;;;;;;7.09;75.30;99578.59;4904976;29;20059;-85
2023/12/31 11:08:44;;;;;;;91.82;47.58;;;;;;;7.14;74.45;99571.69;4901830;29;20055;-81
2023/12/31 11:11:30;;;;;;;96.47;48.97;;;;;;;7.19;74.72;99563.16;4902122;29;20055;-81
2023/12/31 11:14:17;;;;;;;84.93;45.67;;;;;;;7.29;74.01;99552.22;4902201;29;20073;-78
2023/12/31 11:17:11;;;;;;;116.90;58.15;;;;;;;7.48;73.54;99548.78;4889848;29;20055;-76
2023/12/31 11:20:05;;;;;;;88.05;47.22;;;;;;;7.48;72.98;99546.13;4901651;29;20068;-80
2023/12/31 11:23:00;;;;;;;103.03;48.75;;;;;;;7.54;72.88;99540.03;4901349;29;20060;-80
2023/12/31 11:25:47;;;;;;;105.32;55.50;;;;;;;7.66;72.59;99534.97;4901145;29;20059;-81
2023/12/31 11:28:33;;;;;;;88.75;47.45;;;;;;;7.80;72.29;99526.03;4885425;29;20067;-79
2023/12/31 11:31:21;;;;;;;88.07;46.30;;;;;;;7.89;71.58;99527.41;4901800;29;20051;-82
2023/12/31 11:34:09;;;;;;;93.82;48.72;;;;;;;7.97;71.92;99520.31;4901412;29;20403;-78
2023/12/31 11:36:54;;;;;;;82.60;45.72;;;;;;;8.06;71.47;99514.59;4888201;29;20060;-78
2023/12/31 11:39:45;;;;;;;84.80;46.97;;;;;;;8.17;71.58;99507.03;4902155;29;20068;-79
2023/12/31 11:42:31;;;;;;;88.35;48.72;;;;;;;8.32;71.15;99508.41;4913435;29;20052;-83
2023/12/31 11:45:42;;;;;;;81.65;46.20;;;;;;;8.37;70.48;99493.72;4915399;29;20054;-82
2023/12/31 11:48:28;;;;;;;94.80;49.85;;;;;;;8.54;69.83;99497.59;4906680;29;20059;-82
2023/12/31 11:51:17;;;;;;;89.93;50.97;;;;;;;8.65;69.96;99486.34;4907457;29;20056;-80
2023/12/31 11:54:02;;;;;;;87.82;49.58;;;;;;;8.68;69.31;99477.16;4877016;29;20542;-78
2023/12/31 11:56:51;;;;;;;85.35;49.38;;;;;;;8.71;69.18;99480.22;4902607;29;20063;-83
2023/12/31 11:59:38;;;;;;;91.18;50.65;;;;;;;8.78;68.89;99480.19;4903154;29;20059;-79
2023/12/31 12:02:23;;;;;;;84.53;46.97;;;;;;;8.74;68.41;99479.78;4889356;29;20052;-84
2023/12/31 12:05:09;;;;;;;98.72;49.78;;;;;;;8.77;68.53;99471.41;4909772;29;20059;-79
2023/12/31 12:07:54;;;;;;;85.43;50.17;;;;;;;8.91;69.19;99474.81;4893093;29;20052;-76
2023/12/31 12:10:43;;;;;;;94.05;48.95;;;;;;;8.95;68.37;99462.75;4903915;29;20055;-81
2023/12/31 12:13:30;;;;;;;87.35;48.55;;;;;;;9.01;68.02;99461.88;4907553;29;20104;-84
2023/12/31 12:16:16;;;;;;;88.07;48.92;;;;;;;9.09;68.13;99460.00;4906364;29;20055;-83
2023/12/31 12:19:05;;;;;;;83.50;47.88;;;;;;;9.08;67.49;99453.09;4907327;29;20064;-86
2023/12/31 12:21:54;;;;;;;92.82;49.10;;;;;;;9.15;67.75;99453.84;4879036;29;20055;-81
2023/12/31 12:24:41;;;;;;;91.35;49.83;;;;;;;9.16;67.12;99448.34;4907453;29;20830;-87
2023/12/31 12:27:26;;;;;;;79.10;45.92;;;;;;;9.17;67.41;99441.19;4887195;29;20403;-87
2023/12/31 12:30:11;;;;;;;85.22;47.55;;;;;;;9.24;67.17;99440.13;4900421;29;20392;-81
2023/12/31 12:33:00;;;;;;;91.00;52.60;;;;;;;9.27;66.94;99445.00;4892963;29;20055;-81
2023/12/31 12:35:45;;;;;;;84.20;49.17;;;;;;;9.38;68.18;99432.06;4886206;29;20411;-79
2023/12/31 12:38:32;;;;;;;93.13;49.72;;;;;;;9.43;66.82;99433.03;4886264;29;20067;-79